createdAt,value
2023-11-15T00:02:42.860Z,0.93
2023-11-15T00:08:55.035Z,1.30
2023-11-15T00:11:43.730Z,1.23
2023-11-15T00:30:57.820Z,1.20
2023-11-15T00:32:47.255Z,1.20
2023-11-15T00:35:40.247Z,1.35
2023-11-15T01:50:15.543Z,1.88
2023-11-15T01:52:45.756Z,1.55
2023-11-15T01:55:45.201Z,1.20
2023-11-15T02:05:15.434Z,1.30
2023-11-15T02:06:17.924Z,1.60
2023-11-15T02:08:19.820Z,1.55
2023-11-15T02:18:48.851Z,1.63
2023-11-15T02:21:24.332Z,1.60
2023-11-15T02:50:47.680Z,2.40
2023-11-15T03:31:11.736Z,2.75
2023-11-15T03:33:47.419Z,4.28
2023-11-15T03:39:45.936Z,2.87
2023-11-15T03:42:43.644Z,4.03
2023-11-15T03:45:47.955Z,3.00
2023-11-15T03:54:52.872Z,2.15
2023-11-15T03:58:12.758Z,4.32
2023-11-15T04:01:56.894Z,4.30
2023-11-15T04:11:31.796Z,3.70
2023-11-15T04:33:13.594Z,4.97
2023-11-15T04:49:13.342Z,2.60
2023-11-15T04:51:55.809Z,3.08
2023-11-15T04:55:14.430Z,3.10
2023-11-15T05:02:49.647Z,3.60
2023-11-15T05:12:16.255Z,4.10
2023-11-15T05:15:22.420Z,4.22
2023-11-15T05:40:23.132Z,3.22
2023-11-15T05:50:07.322Z,4.68
2023-11-15T06:06:37.966Z,7.40
2023-11-15T06:38:42.292Z,8.15
2023-11-15T06:48:41.455Z,8.50
2023-11-15T06:59:36.432Z,5.80
2023-11-15T07:18:36.378Z,10.40
2023-11-15T07:38:42.483Z,8.63
2023-11-15T07:41:38.331Z,7.72
2023-11-15T07:44:15.356Z,8.00
2023-11-15T07:53:38.630Z,8.23
2023-11-15T07:59:36.216Z,7.88
2023-11-15T08:02:04.914Z,10.15
2023-11-15T08:05:03.414Z,9.48
2023-11-15T08:08:39.208Z,9.25
2023-11-15T08:33:11.186Z,8.02
2023-11-15T08:36:05.841Z,9.27
2023-11-15T08:39:20.971Z,9.45
2023-11-15T08:46:11.750Z,8.55
2023-11-15T09:11:07.795Z,8.35
2023-11-15T09:14:11.248Z,9.00
2023-11-15T09:19:55.414Z,8.68
2023-11-15T09:23:18.659Z,8.85
2023-11-15T09:26:33.934Z,7.95
2023-11-15T09:35:06.664Z,8.05
2023-11-15T09:41:13.787Z,8.23
2023-11-15T09:45:17.176Z,7.90
2023-11-15T09:52:16.568Z,8.15
2023-11-15T10:02:37.175Z,7.03
2023-11-15T10:22:37.419Z,7.07
2023-11-15T10:32:40.412Z,7.25
2023-11-15T10:41:40.247Z,7.07
2023-11-15T10:44:35.221Z,7.53
2023-11-15T10:47:38.161Z,6.97
2023-11-15T10:50:42.617Z,6.15
2023-11-15T11:04:39.505Z,6.10
2023-11-15T11:07:59.368Z,5.80
2023-11-15T11:14:44.750Z,6.15
2023-11-15T11:18:31.549Z,5.57
2023-11-15T11:25:02.742Z,5.88
2023-11-15T11:30:47.512Z,5.45
2023-11-15T11:34:34.101Z,5.30
2023-11-15T11:37:05.338Z,5.38
2023-11-15T11:46:33.942Z,4.00
2023-11-15T11:49:02.830Z,4.78
2023-11-15T12:00:59.099Z,4.85
2023-11-15T12:13:06.582Z,5.20
2023-11-15T12:23:01.096Z,4.15
2023-11-15T12:29:03.273Z,4.28
2023-11-15T12:32:07.904Z,4.60
2023-11-15T12:36:00.223Z,4.28
2023-11-15T12:38:29.674Z,3.78
2023-11-15T12:41:08.074Z,4.40
2023-11-15T12:52:55.039Z,4.18
2023-11-15T12:56:15.817Z,4.35
2023-11-15T13:14:05.801Z,4.18
2023-11-15T13:22:03.663Z,3.78
2023-11-15T13:25:01.523Z,3.42
2023-11-15T13:27:31.989Z,4.03
2023-11-15T13:33:32.941Z,3.33
2023-11-15T13:38:54.591Z,3.58
2023-11-15T13:58:27.523Z,3.70
2023-11-15T14:12:28.260Z,4.00
2023-11-15T14:15:27.773Z,4.15
2023-11-15T14:18:32.086Z,3.78
2023-11-15T14:21:29.649Z,3.75
2023-11-15T14:23:59.278Z,4.35
2023-11-15T14:26:27.659Z,7.68
2023-11-15T14:32:29.892Z,6.13
2023-11-15T14:35:20.564Z,4.60
2023-11-15T14:37:57.270Z,4.90
2023-11-15T14:43:28.557Z,4.22
2023-11-15T14:45:57.590Z,3.75
2023-11-15T14:48:26.346Z,3.58
2023-11-15T14:50:59.496Z,3.78
2023-11-15T14:53:55.658Z,3.67
2023-11-15T14:56:29.764Z,3.67
2023-11-15T15:01:58.555Z,3.40
2023-11-15T15:04:49.962Z,3.90
2023-11-15T15:07:37.822Z,3.28
2023-11-15T15:11:37.498Z,4.25
2023-11-15T16:07:02.005Z,3.75
2023-11-15T16:09:56.396Z,3.42
2023-11-15T16:12:24.956Z,3.20
2023-11-15T16:14:59.256Z,4.00
2023-11-15T16:17:56.404Z,3.65
2023-11-15T16:20:57.901Z,3.67
2023-11-15T16:23:24.431Z,3.58
2023-11-15T16:28:26.771Z,3.40
2023-11-15T16:30:55.968Z,3.90
2023-11-15T16:33:24.397Z,3.50
2023-11-15T16:36:02.287Z,3.08
2023-11-15T16:39:02.925Z,3.70
2023-11-15T16:41:56.701Z,3.17
2023-11-15T16:44:30.576Z,3.38
2023-11-15T16:46:59.002Z,3.13
2023-11-15T16:50:00.213Z,3.10
2023-11-15T16:52:28.703Z,2.75
2023-11-15T16:54:57.009Z,3.30
2023-11-15T16:57:25.555Z,3.55
2023-11-15T17:02:21.312Z,3.33
2023-11-15T17:04:55.727Z,3.20
2023-11-15T17:07:24.126Z,3.08
2023-11-15T17:09:53.483Z,3.00
2023-11-15T17:12:23.318Z,3.13
2023-11-15T17:15:24.116Z,2.97
2023-11-15T17:17:52.585Z,3.07
2023-11-15T17:20:21.384Z,3.00
2023-11-15T17:22:50.040Z,2.85
2023-11-15T17:25:21.860Z,2.70
2023-11-15T17:27:52.631Z,2.80
2023-11-15T17:33:22.428Z,2.38
2023-11-15T17:35:51.349Z,2.78
2023-11-15T17:38:22.660Z,3.65
2023-11-15T17:43:24.308Z,2.88
2023-11-15T17:45:56.355Z,2.63
2023-11-15T17:48:25.497Z,3.17
2023-11-15T17:53:43.090Z,2.38
2023-11-15T17:56:23.106Z,3.03
2023-11-15T17:58:53.501Z,2.80
2023-11-15T18:01:23.058Z,2.57
2023-11-15T18:03:51.625Z,3.00
2023-11-15T18:11:57.905Z,3.70
2023-11-15T18:15:37.712Z,3.53
2023-11-15T18:17:26.457Z,2.88
2023-11-15T18:20:25.652Z,3.58
2023-11-15T18:22:56.253Z,2.28
2023-11-15T18:25:26.454Z,3.53
2023-11-15T18:34:31.575Z,2.60
2023-11-15T18:37:32.688Z,2.83
2023-11-15T18:40:25.586Z,2.72
2023-11-15T18:43:20.307Z,2.72
2023-11-15T18:45:49.705Z,2.75
2023-11-15T18:48:26.832Z,2.65
2023-11-15T18:53:37.402Z,2.78
2023-11-15T18:56:10.235Z,3.03
2023-11-15T18:59:23.763Z,2.63
2023-11-15T19:01:52.201Z,2.40
2023-11-15T19:04:20.864Z,2.92
2023-11-15T19:06:51.726Z,2.70
2023-11-15T19:09:25.392Z,3.10
2023-11-15T19:11:57.645Z,2.83
2023-11-15T19:14:26.959Z,4.13
2023-11-15T19:16:55.318Z,3.42
2023-11-15T19:19:24.893Z,3.25
2023-11-15T19:21:53.608Z,2.40
2023-11-15T19:24:22.853Z,3.05
2023-11-15T19:26:51.977Z,3.08
2023-11-15T19:29:20.319Z,3.13
2023-11-15T19:31:53.844Z,2.72
2023-11-15T19:34:25.213Z,3.13
2023-11-15T19:36:54.615Z,2.88
2023-11-15T19:39:23.130Z,2.65
2023-11-15T19:41:52.456Z,3.10
2023-11-15T19:44:20.894Z,3.47
2023-11-15T19:46:49.306Z,3.03
2023-11-15T19:49:21.628Z,2.95
2023-11-15T19:51:53.445Z,2.88
2023-11-15T19:54:23.649Z,2.53
2023-11-15T19:56:52.586Z,2.97
2023-11-15T19:59:21.010Z,2.88
2023-11-15T20:01:52.484Z,2.90
2023-11-15T20:04:21.876Z,2.53
2023-11-15T20:06:51.831Z,3.08
2023-11-15T20:09:20.171Z,3.58
2023-11-15T20:11:50.032Z,2.70
2023-11-15T20:14:22.693Z,2.70
2023-11-15T20:19:40.423Z,3.15
2023-11-15T20:22:10.035Z,2.80
2023-11-15T20:24:39.868Z,2.85
2023-11-15T20:27:10.074Z,3.30
2023-11-15T20:29:40.688Z,3.03
2023-11-15T20:32:09.910Z,3.15
2023-11-15T20:34:39.930Z,2.92
2023-11-15T20:37:08.746Z,2.78
2023-11-15T20:39:38.377Z,3.10
2023-11-15T20:42:08.430Z,3.08
2023-11-15T20:44:49.367Z,3.33
2023-11-15T20:47:21.138Z,2.67
2023-11-15T20:49:53.217Z,2.80
2023-11-15T20:52:22.031Z,3.40
2023-11-15T20:54:50.779Z,3.38
2023-11-15T20:57:19.087Z,2.85
2023-11-15T20:59:47.993Z,2.75
2023-11-15T21:02:17.074Z,3.22
2023-11-15T21:04:46.103Z,2.92
2023-11-15T21:07:15.500Z,3.10
2023-11-15T21:09:50.267Z,3.38
2023-11-15T21:12:20.269Z,3.58
2023-11-15T21:14:49.720Z,3.15
2023-11-15T21:17:18.657Z,2.92
2023-11-15T21:19:47.175Z,3.45
2023-11-15T21:22:50.754Z,3.53
2023-11-15T21:25:19.193Z,4.40
2023-11-15T21:27:47.578Z,3.45
2023-11-15T21:30:18.314Z,3.53
2023-11-15T21:32:50.080Z,3.45
2023-11-15T21:35:19.390Z,4.10
2023-11-15T21:37:50.756Z,4.40
2023-11-15T21:40:20.524Z,4.15
2023-11-15T21:42:50.670Z,4.68
2023-11-15T21:45:22.025Z,5.18
2023-11-15T21:47:51.105Z,4.97
2023-11-15T21:53:52.304Z,4.55
2023-11-15T21:56:22.685Z,4.20
2023-11-15T22:01:56.375Z,4.00
2023-11-15T22:04:27.604Z,4.78
2023-11-15T22:12:15.095Z,4.00
2023-11-15T22:14:51.315Z,4.30
2023-11-15T22:17:19.703Z,4.00
2023-11-15T22:19:48.008Z,3.67
2023-11-15T22:22:18.589Z,4.57
2023-11-15T22:24:47.995Z,3.35
2023-11-15T22:27:16.845Z,3.83
2023-11-15T22:29:52.046Z,3.55
2023-11-15T22:32:21.334Z,3.85
2023-11-15T22:34:49.899Z,3.55
2023-11-15T22:37:18.274Z,3.67
2023-11-15T22:39:47.359Z,3.90
2023-11-15T22:42:17.080Z,3.00
2023-11-15T22:44:45.954Z,3.05
2023-11-15T22:47:15.068Z,3.13
2023-11-15T22:49:44.024Z,3.50
2023-11-15T22:52:12.883Z,3.53
2023-11-15T22:54:41.879Z,2.90
2023-11-15T22:57:10.890Z,2.80
2023-11-15T22:59:52.143Z,3.13
2023-11-15T23:02:22.345Z,3.60
2023-11-15T23:04:51.186Z,3.00
2023-11-15T23:07:22.438Z,2.67
2023-11-15T23:09:51.905Z,2.75
2023-11-15T23:12:20.718Z,2.70
2023-11-15T23:14:50.013Z,3.08
2023-11-15T23:17:18.839Z,2.72
2023-11-15T23:19:47.244Z,2.67
2023-11-15T23:22:16.501Z,2.67
2023-11-15T23:24:45.879Z,2.80
2023-11-15T23:27:19.261Z,3.08
2023-11-15T23:29:48.594Z,2.90
2023-11-15T23:32:18.756Z,2.80
2023-11-15T23:34:57.324Z,2.70
2023-11-15T23:38:35.140Z,2.78
